createdAt,value
2018-10-07T00:01:36.085Z,21.90
2018-10-07T00:04:03.775Z,19.63
2018-10-07T00:06:31.456Z,24.00
2018-10-07T00:08:59.170Z,16.87
2018-10-07T00:11:26.873Z,17.40
2018-10-07T00:13:54.578Z,15.13
2018-10-07T00:16:22.301Z,14.47
2018-10-07T00:18:49.994Z,15.17
2018-10-07T00:21:17.700Z,14.53
2018-10-07T00:23:45.404Z,14.10
2018-10-07T00:26:13.072Z,13.77
2018-10-07T00:28:40.762Z,12.60
2018-10-07T00:31:08.488Z,14.50
2018-10-07T00:33:36.141Z,13.90
2018-10-07T00:36:03.884Z,16.10
2018-10-07T00:38:31.616Z,13.83
2018-10-07T00:40:59.377Z,15.00
2018-10-07T00:43:27.149Z,19.67
2018-10-07T00:45:54.805Z,13.57
2018-10-07T00:48:26.998Z,19.00
2018-10-07T00:50:54.825Z,14.50
2018-10-07T00:53:22.541Z,14.47
2018-10-07T00:55:50.329Z,19.30
2018-10-07T00:58:18.022Z,15.83
2018-10-07T01:00:45.812Z,18.03
2018-10-07T01:03:13.492Z,15.07
2018-10-07T01:05:41.280Z,18.33
2018-10-07T01:08:08.936Z,15.87
2018-10-07T01:10:36.641Z,12.90
2018-10-07T01:13:04.337Z,12.67
2018-10-07T01:15:31.969Z,14.33
2018-10-07T01:17:59.808Z,14.13
2018-10-07T01:20:27.555Z,13.70
2018-10-07T01:22:55.285Z,15.23
2018-10-07T01:25:23.032Z,15.40
2018-10-07T01:27:50.748Z,9.67
2018-10-07T01:30:21.553Z,13.53
2018-10-07T01:32:51.036Z,12.30
2018-10-07T01:35:18.905Z,11.97
2018-10-07T01:37:46.779Z,13.73
2018-10-07T01:40:14.530Z,13.23
2018-10-07T01:42:42.178Z,12.17
2018-10-07T01:45:09.897Z,10.90
2018-10-07T01:47:37.653Z,13.53
2018-10-07T01:50:05.657Z,11.17
2018-10-07T01:52:33.309Z,12.87
2018-10-07T01:55:01.032Z,15.50
2018-10-07T01:57:28.681Z,12.53
2018-10-07T01:59:56.365Z,13.73
2018-10-07T02:02:24.097Z,12.53
2018-10-07T02:04:51.767Z,13.63
2018-10-07T02:07:19.405Z,12.83
2018-10-07T02:09:47.201Z,12.70
2018-10-07T02:12:14.858Z,13.47
2018-10-07T02:14:42.481Z,12.63
2018-10-07T02:17:10.208Z,13.47
2018-10-07T02:19:37.866Z,11.97
2018-10-07T02:22:05.623Z,12.57
2018-10-07T02:24:33.313Z,13.17
2018-10-07T02:27:01.268Z,13.47
2018-10-07T02:29:28.961Z,13.97
2018-10-07T02:31:56.657Z,14.07
2018-10-07T02:34:24.326Z,12.30
2018-10-07T02:36:52.122Z,14.97
2018-10-07T02:39:19.869Z,13.67
2018-10-07T02:41:47.616Z,14.43
2018-10-07T02:44:15.353Z,16.90
2018-10-07T02:46:43.160Z,14.03
2018-10-07T02:49:10.842Z,14.37
2018-10-07T02:51:38.665Z,13.47
2018-10-07T02:54:06.436Z,15.37
2018-10-07T02:56:34.228Z,15.27
2018-10-07T02:59:02.202Z,13.97
2018-10-07T03:01:29.975Z,14.23
2018-10-07T03:03:57.733Z,13.47
2018-10-07T03:06:25.461Z,12.80
2018-10-07T03:08:53.207Z,14.03
2018-10-07T03:11:20.922Z,12.93
2018-10-07T03:13:50.412Z,15.57
2018-10-07T03:16:18.120Z,14.03
2018-10-07T03:18:45.767Z,13.07
2018-10-07T03:21:13.558Z,15.40
2018-10-07T03:23:41.225Z,13.80
2018-10-07T03:26:08.953Z,15.90
2018-10-07T03:28:36.644Z,10.03
2018-10-07T03:31:04.359Z,17.10
2018-10-07T03:33:32.049Z,13.83
2018-10-07T03:35:59.909Z,13.67
2018-10-07T03:38:27.584Z,15.17
2018-10-07T03:40:55.545Z,13.87
2018-10-07T03:43:23.321Z,9.97
2018-10-07T03:45:50.991Z,8.23
2018-10-07T03:48:18.681Z,17.60
2018-10-07T03:50:46.381Z,9.77
2018-10-07T03:53:14.098Z,10.20
2018-10-07T03:55:41.764Z,15.80
2018-10-07T03:58:09.468Z,15.73
2018-10-07T04:00:37.200Z,15.87
2018-10-07T04:03:04.973Z,10.37
2018-10-07T04:05:32.677Z,9.03
2018-10-07T04:08:00.406Z,10.27
2018-10-07T04:10:28.029Z,14.70
2018-10-07T04:12:55.764Z,14.40
2018-10-07T04:15:23.482Z,9.33
2018-10-07T04:17:51.256Z,14.10
2018-10-07T04:20:18.916Z,15.37
2018-10-07T04:22:46.576Z,17.50
2018-10-07T04:25:14.299Z,13.30
2018-10-07T04:27:41.981Z,17.10
2018-10-07T04:30:09.698Z,16.77
2018-10-07T04:32:37.396Z,18.57
2018-10-07T04:35:05.137Z,19.23
2018-10-07T04:37:32.898Z,20.13
2018-10-07T04:40:00.657Z,17.43
2018-10-07T04:42:28.253Z,18.63
2018-10-07T04:44:55.973Z,14.93
2018-10-07T04:47:23.648Z,18.70
2018-10-07T04:49:51.381Z,13.43
2018-10-07T04:52:19.085Z,15.50
2018-10-07T04:54:46.752Z,16.77
2018-10-07T04:57:14.473Z,19.83
2018-10-07T04:59:42.249Z,21.27
2018-10-07T05:02:09.909Z,17.63
2018-10-07T05:04:37.656Z,11.80
2018-10-07T05:07:05.635Z,12.60
2018-10-07T05:09:33.913Z,11.93
2018-10-07T05:12:04.693Z,16.60
2018-10-07T05:14:32.485Z,18.30
2018-10-07T05:17:00.577Z,16.97
2018-10-07T05:19:28.342Z,9.10
2018-10-07T05:21:56.164Z,9.43
2018-10-07T05:24:23.916Z,15.70
2018-10-07T05:26:51.654Z,16.20
2018-10-07T05:29:19.373Z,17.07
2018-10-07T05:31:47.020Z,18.80
2018-10-07T05:34:14.693Z,18.97
2018-10-07T05:36:42.456Z,18.20
2018-10-07T05:39:11.245Z,20.60
2018-10-07T05:41:38.961Z,17.87
2018-10-07T05:44:06.710Z,18.07
2018-10-07T05:46:34.396Z,19.47
2018-10-07T05:49:02.092Z,17.67
2018-10-07T05:51:29.842Z,18.80
2018-10-07T05:53:57.592Z,20.80
2018-10-07T05:56:25.351Z,20.80
2018-10-07T05:58:55.525Z,18.63
2018-10-07T06:01:28.769Z,22.13
2018-10-07T06:04:18.241Z,20.13
2018-10-07T06:06:46.360Z,10.63
2018-10-07T06:09:33.179Z,19.20
2018-10-07T06:12:08.447Z,22.00
2018-10-07T06:14:54.172Z,15.50
2018-10-07T06:17:21.823Z,20.53
2018-10-07T06:19:49.525Z,23.23
2018-10-07T06:22:17.286Z,21.93
2018-10-07T06:24:49.818Z,25.37
2018-10-07T06:27:17.636Z,23.90
2018-10-07T06:29:45.470Z,26.70
2018-10-07T06:32:13.233Z,26.57
2018-10-07T06:34:40.974Z,30.53
2018-10-07T06:37:08.693Z,23.23
2018-10-07T06:39:36.501Z,30.13
2018-10-07T06:42:04.249Z,30.53
2018-10-07T06:44:31.979Z,31.73
2018-10-07T06:47:02.877Z,34.50
2018-10-07T06:49:30.601Z,35.90
2018-10-07T06:51:58.433Z,31.63
2018-10-07T06:54:26.174Z,32.60
2018-10-07T06:56:54.009Z,26.47
2018-10-07T06:59:21.800Z,42.30
2018-10-07T07:01:49.577Z,29.07
2018-10-07T07:04:17.413Z,32.27
2018-10-07T07:06:45.242Z,34.37
2018-10-07T07:09:12.877Z,36.77
2018-10-07T07:11:40.645Z,33.43
2018-10-07T07:14:08.504Z,34.00
2018-10-07T07:16:36.444Z,32.17
2018-10-07T07:19:04.189Z,32.23
2018-10-07T07:21:31.913Z,35.00
2018-10-07T07:24:01.117Z,33.30
2018-10-07T07:26:28.802Z,32.70
2018-10-07T07:28:56.500Z,35.67
2018-10-07T07:31:24.565Z,32.37
2018-10-07T07:33:52.503Z,32.97
2018-10-07T07:36:20.217Z,31.17
2018-10-07T07:38:47.933Z,37.97
2018-10-07T07:41:15.701Z,35.13
2018-10-07T07:43:43.321Z,41.93
2018-10-07T07:46:11.552Z,39.90
2018-10-07T07:48:39.258Z,37.93
2018-10-07T07:51:09.697Z,36.77
2018-10-07T07:53:38.078Z,35.20
2018-10-07T07:56:05.993Z,35.60
2018-10-07T07:58:33.705Z,34.17
2018-10-07T08:01:01.497Z,37.87
2018-10-07T08:03:29.265Z,35.93
2018-10-07T08:05:57.003Z,34.10
2018-10-07T08:08:24.910Z,39.50
2018-10-07T08:10:52.665Z,35.63
2018-10-07T08:13:20.449Z,35.77
2018-10-07T08:15:48.140Z,37.27
2018-10-07T08:18:15.857Z,39.50
2018-10-07T08:20:43.606Z,38.43
2018-10-07T08:23:11.329Z,36.10
2018-10-07T08:25:39.017Z,43.70
2018-10-07T08:28:07.657Z,39.50
2018-10-07T08:30:35.382Z,40.80
2018-10-07T08:33:04.628Z,40.93
2018-10-07T08:35:32.324Z,38.23
2018-10-07T08:38:00.018Z,39.07
2018-10-07T08:40:27.765Z,42.17
2018-10-07T08:42:55.413Z,42.00
2018-10-07T08:45:23.070Z,40.70
2018-10-07T08:47:50.764Z,43.57
2018-10-07T08:50:18.485Z,41.83
2018-10-07T08:52:46.201Z,40.60
2018-10-07T08:55:13.928Z,38.00
2018-10-07T08:57:41.613Z,38.43
2018-10-07T09:00:09.358Z,42.00
2018-10-07T09:02:37.129Z,40.13
2018-10-07T09:05:04.876Z,40.53
2018-10-07T09:07:32.581Z,39.23
2018-10-07T09:10:00.181Z,39.43
2018-10-07T09:12:27.925Z,44.23
2018-10-07T09:14:55.617Z,42.17
2018-10-07T09:17:23.381Z,37.47
2018-10-07T09:19:51.073Z,40.23
2018-10-07T09:22:18.736Z,40.40
2018-10-07T09:24:46.368Z,41.30
2018-10-07T09:27:14.173Z,45.77
2018-10-07T09:29:41.853Z,41.97
2018-10-07T09:32:09.649Z,46.63
2018-10-07T09:34:37.330Z,44.20
2018-10-07T09:37:05.462Z,42.43
2018-10-07T09:39:33.227Z,38.97
2018-10-07T09:42:00.933Z,45.37
2018-10-07T09:44:28.660Z,43.80
2018-10-07T09:46:56.365Z,40.30
2018-10-07T09:49:24.124Z,41.80
2018-10-07T09:51:51.820Z,42.33
2018-10-07T09:54:19.529Z,44.23
2018-10-07T09:56:47.249Z,42.43
2018-10-07T09:59:14.988Z,45.47
2018-10-07T10:01:42.689Z,45.63
2018-10-07T10:04:10.461Z,44.57
2018-10-07T10:06:38.076Z,44.77
2018-10-07T10:09:07.577Z,40.63
2018-10-07T10:11:35.288Z,40.23
2018-10-07T10:14:03.128Z,44.10
2018-10-07T10:16:42.928Z,41.80
2018-10-07T10:20:17.431Z,43.33
2018-10-07T10:22:54.724Z,35.93
2018-10-07T10:25:35.832Z,31.70
2018-10-07T10:28:17.924Z,30.77
2018-10-07T10:31:00.781Z,28.60
2018-10-07T10:33:31.968Z,27.07
2018-10-07T10:36:19.244Z,28.50
2018-10-07T10:39:09.104Z,29.20
2018-10-07T10:41:48.876Z,30.23
2018-10-07T10:44:21.820Z,29.77
2018-10-07T10:47:02.540Z,26.80
2018-10-07T10:49:56.461Z,31.27
2018-10-07T10:52:30.226Z,30.00
2018-10-07T10:55:10.570Z,30.00
2018-10-07T10:57:49.980Z,32.33
2018-10-07T11:00:24.664Z,29.70
2018-10-07T11:03:37.096Z,27.77
2018-10-07T11:06:28.681Z,29.17
2018-10-07T11:09:07.677Z,29.07
2018-10-07T11:11:55.623Z,23.00
2018-10-07T11:15:41.772Z,22.40
2018-10-07T11:19:23.828Z,21.33
2018-10-07T11:24:08.740Z,30.47
2018-10-07T11:26:47.029Z,15.83
2018-10-07T11:29:30.749Z,16.30
2018-10-07T11:32:17.376Z,17.13
2018-10-07T11:35:01.925Z,18.23
2018-10-07T11:38:18.140Z,18.63
2018-10-07T11:41:00.812Z,17.07
2018-10-07T11:43:42.932Z,12.17
2018-10-07T11:46:35.521Z,11.03
2018-10-07T11:49:11.317Z,14.30
2018-10-07T11:51:54.364Z,14.20
2018-10-07T11:54:40.284Z,15.77
2018-10-07T11:57:07.945Z,15.87
2018-10-07T11:59:35.709Z,15.20
2018-10-07T12:02:03.467Z,17.73
2018-10-07T12:04:31.141Z,17.50
2018-10-07T12:06:58.877Z,17.97
2018-10-07T12:09:26.558Z,19.33
2018-10-07T12:11:58.008Z,19.30
2018-10-07T12:14:25.809Z,16.73
2018-10-07T12:16:53.589Z,16.60
2018-10-07T12:19:21.261Z,15.60
2018-10-07T12:21:49.020Z,13.47
2018-10-07T12:24:16.678Z,14.83
2018-10-07T12:26:44.345Z,11.27
2018-10-07T12:29:12.072Z,10.07
2018-10-07T12:31:39.739Z,10.40
2018-10-07T12:34:07.461Z,8.47
2018-10-07T12:36:35.126Z,10.30
2018-10-07T12:39:03.033Z,11.03
2018-10-07T12:41:30.772Z,9.37
2018-10-07T12:43:58.454Z,9.83
2018-10-07T12:46:26.153Z,11.20
2018-10-07T12:48:54.106Z,10.63
2018-10-07T12:51:21.872Z,8.60
2018-10-07T12:53:49.603Z,7.77
2018-10-07T12:56:17.289Z,8.77
2018-10-07T12:58:45.105Z,9.50
2018-10-07T13:01:13.136Z,9.47
2018-10-07T13:03:40.763Z,9.07
2018-10-07T13:06:08.475Z,9.63
2018-10-07T13:08:36.683Z,10.90
2018-10-07T13:11:04.495Z,12.87
2018-10-07T13:13:32.338Z,17.00
2018-10-07T13:16:00.057Z,11.20
2018-10-07T13:18:27.809Z,12.00
2018-10-07T13:20:55.557Z,11.63
2018-10-07T13:23:23.500Z,13.90
2018-10-07T13:25:51.341Z,13.23
2018-10-07T13:28:19.040Z,14.00
2018-10-07T13:30:46.647Z,15.80
2018-10-07T13:33:14.337Z,17.03
2018-10-07T13:35:42.011Z,17.83
2018-10-07T13:38:14.029Z,15.97
2018-10-07T13:40:41.856Z,16.40
2018-10-07T13:43:09.574Z,15.67
2018-10-07T13:45:37.292Z,17.47
2018-10-07T13:48:04.981Z,15.00
2018-10-07T13:50:32.657Z,17.57
2018-10-07T13:53:00.296Z,15.67
2018-10-07T13:55:28.025Z,13.63
2018-10-07T13:57:55.721Z,14.80
2018-10-07T14:00:24.528Z,12.40
2018-10-07T14:02:52.358Z,11.80
2018-10-07T14:05:20.082Z,13.47
2018-10-07T14:07:47.784Z,16.23
2018-10-07T14:10:15.480Z,16.00
2018-10-07T14:12:43.169Z,12.07
2018-10-07T14:15:10.825Z,12.70
2018-10-07T14:17:38.456Z,12.93
2018-10-07T14:20:06.317Z,12.50
2018-10-07T14:22:33.997Z,12.53
2018-10-07T14:25:01.725Z,11.53
2018-10-07T14:27:29.457Z,14.27
2018-10-07T14:29:57.177Z,9.40
2018-10-07T14:32:24.940Z,11.63
2018-10-07T14:34:52.646Z,9.63
2018-10-07T14:37:20.445Z,11.87
2018-10-07T14:39:48.118Z,9.67
2018-10-07T14:42:15.884Z,8.67
2018-10-07T14:44:43.612Z,8.63
2018-10-07T14:47:11.297Z,7.73
2018-10-07T14:49:38.980Z,8.57
2018-10-07T14:52:06.725Z,8.57
2018-10-07T14:54:34.381Z,10.23
2018-10-07T14:57:02.064Z,7.00
2018-10-07T14:59:29.785Z,7.40
2018-10-07T15:01:57.517Z,7.47
2018-10-07T15:04:25.241Z,8.10
2018-10-07T15:06:52.888Z,6.63
2018-10-07T15:09:20.557Z,9.30
2018-10-07T15:11:48.265Z,6.00
2018-10-07T15:14:15.930Z,5.30
2018-10-07T15:16:43.916Z,6.57
2018-10-07T15:19:11.618Z,5.07
2018-10-07T15:21:39.318Z,6.00
2018-10-07T15:24:07.042Z,6.53
2018-10-07T15:26:34.745Z,7.23
2018-10-07T15:29:02.477Z,5.30
2018-10-07T15:31:30.209Z,7.50
2018-10-07T15:33:57.914Z,6.67
2018-10-07T15:36:25.696Z,6.73
2018-10-07T15:38:53.373Z,5.87
2018-10-07T15:41:21.087Z,6.70
2018-10-07T15:43:48.729Z,5.20
2018-10-07T15:46:16.434Z,5.43
2018-10-07T15:48:44.200Z,5.40
2018-10-07T15:51:12.021Z,5.73
2018-10-07T15:53:39.762Z,4.40
2018-10-07T15:56:07.508Z,3.80
2018-10-07T15:58:35.204Z,4.30
2018-10-07T16:01:02.941Z,4.33
2018-10-07T16:03:30.688Z,4.23
2018-10-07T16:05:58.372Z,3.70
2018-10-07T16:08:26.008Z,4.50
2018-10-07T16:10:53.750Z,4.60
2018-10-07T16:13:21.364Z,3.40
2018-10-07T16:15:49.076Z,3.87
2018-10-07T16:18:16.806Z,5.73
2018-10-07T16:20:44.487Z,4.60
2018-10-07T16:23:12.113Z,4.00
2018-10-07T16:25:39.822Z,3.77
2018-10-07T16:28:07.508Z,2.90
2018-10-07T16:30:35.136Z,5.03
2018-10-07T16:33:02.837Z,3.60
2018-10-07T16:35:30.489Z,4.13
2018-10-07T16:37:58.149Z,3.67
2018-10-07T16:40:25.866Z,3.65
2018-10-07T16:42:53.585Z,2.83
2018-10-07T16:45:21.309Z,2.97
2018-10-07T16:47:49.002Z,3.53
2018-10-07T16:50:16.672Z,5.20
2018-10-07T16:52:49.241Z,3.97
2018-10-07T16:55:17.065Z,2.63
2018-10-07T16:57:44.856Z,3.10
2018-10-07T17:00:12.529Z,3.23
2018-10-07T17:02:40.293Z,4.17
2018-10-07T17:05:08.017Z,3.23
2018-10-07T17:07:35.781Z,4.53
2018-10-07T17:10:03.620Z,4.93
2018-10-07T17:12:31.365Z,6.30
2018-10-07T17:14:59.032Z,7.27
2018-10-07T17:17:26.865Z,4.20
2018-10-07T17:19:54.553Z,4.07
2018-10-07T17:22:22.273Z,3.23
2018-10-07T17:24:50.015Z,3.77
2018-10-07T17:27:17.723Z,3.87
2018-10-07T17:29:45.433Z,3.67
2018-10-07T17:32:13.108Z,3.70
2018-10-07T17:34:40.769Z,5.27
2018-10-07T17:37:08.469Z,5.20
2018-10-07T17:39:36.209Z,5.10
2018-10-07T17:42:03.886Z,4.60
2018-10-07T17:44:31.589Z,4.73
2018-10-07T17:46:59.247Z,3.10
2018-10-07T17:49:26.923Z,5.20
2018-10-07T17:51:54.621Z,3.53
2018-10-07T17:54:22.300Z,3.43
2018-10-07T17:56:49.974Z,3.70
2018-10-07T17:59:17.669Z,3.30
2018-10-07T18:01:45.357Z,4.10
2018-10-07T18:04:13.093Z,4.33
2018-10-07T18:06:40.917Z,4.67
2018-10-07T18:09:09.189Z,4.50
2018-10-07T18:11:37.019Z,6.93
2018-10-07T18:14:04.818Z,5.47
2018-10-07T18:16:32.544Z,4.70
2018-10-07T18:19:00.287Z,4.03
2018-10-07T18:21:28.800Z,3.50
2018-10-07T18:23:56.639Z,4.03
2018-10-07T18:26:24.405Z,4.70
2018-10-07T18:28:52.141Z,4.80
2018-10-07T18:31:19.936Z,5.03
2018-10-07T18:33:47.716Z,6.43
2018-10-07T18:36:15.417Z,5.67
2018-10-07T18:38:43.101Z,5.80
2018-10-07T18:41:10.834Z,5.53
2018-10-07T18:43:39.449Z,6.17
2018-10-07T18:46:07.146Z,6.33
2018-10-07T18:48:35.338Z,5.43
2018-10-07T18:51:03.296Z,6.73
2018-10-07T18:53:31.017Z,6.73
2018-10-07T18:55:58.708Z,7.20
2018-10-07T18:58:26.400Z,6.90
2018-10-07T19:00:54.081Z,8.30
2018-10-07T19:03:21.748Z,7.23
2018-10-07T19:05:49.497Z,5.97
2018-10-07T19:08:17.269Z,6.50
2018-10-07T19:10:44.943Z,8.50
2018-10-07T19:13:12.565Z,7.77
2018-10-07T19:15:40.796Z,6.87
2018-10-07T19:18:08.453Z,7.67
2018-10-07T19:20:36.270Z,5.27
2018-10-07T19:23:04.009Z,5.83
2018-10-07T19:25:31.686Z,5.03
2018-10-07T19:27:59.430Z,5.97
2018-10-07T19:30:27.764Z,7.77
2018-10-07T19:32:55.457Z,5.80
2018-10-07T19:35:23.213Z,4.83
2018-10-07T19:37:50.898Z,5.27
2018-10-07T19:40:18.561Z,5.73
2018-10-07T19:42:46.456Z,7.23
2018-10-07T19:45:14.195Z,7.03
2018-10-07T19:47:44.312Z,6.07
2018-10-07T19:50:12.085Z,8.87
2018-10-07T19:52:39.849Z,5.97
2018-10-07T19:55:07.489Z,5.97
2018-10-07T19:57:35.182Z,5.27
2018-10-07T20:00:03.041Z,5.97
2018-10-07T20:02:30.692Z,8.23
2018-10-07T20:04:58.423Z,6.97
2018-10-07T20:07:26.305Z,7.50
2018-10-07T20:09:53.985Z,6.53
2018-10-07T20:12:21.746Z,6.33
2018-10-07T20:14:53.608Z,5.43
2018-10-07T20:17:21.399Z,6.33
2018-10-07T20:19:49.096Z,7.17
2018-10-07T20:22:17.305Z,6.97
2018-10-07T20:24:45.174Z,8.10
2018-10-07T20:27:12.971Z,7.67
2018-10-07T20:29:41.222Z,7.83
2018-10-07T20:32:09.076Z,6.60
2018-10-07T20:34:37.547Z,7.37
2018-10-07T20:37:05.537Z,8.67
2018-10-07T20:39:33.336Z,8.87
2018-10-07T20:44:57.594Z,8.43
2018-10-07T20:47:25.743Z,8.30
2018-10-07T20:49:54.821Z,9.93
2018-10-07T20:52:25.317Z,10.57
2018-10-07T20:54:52.956Z,9.90
2018-10-07T20:57:28.952Z,8.13
2018-10-07T20:59:59.480Z,11.07
2018-10-07T21:02:27.736Z,10.07
2018-10-07T21:04:58.173Z,10.67
2018-10-07T21:07:32.701Z,12.87
2018-10-07T21:10:01.352Z,13.97
2018-10-07T21:12:29.564Z,10.70
2018-10-07T21:15:03.644Z,13.53
2018-10-07T21:17:33.265Z,13.30
2018-10-07T21:20:03.915Z,11.67
2018-10-07T21:22:31.964Z,10.83
2018-10-07T21:24:59.787Z,11.17
2018-10-07T21:27:28.631Z,9.97
2018-10-07T21:29:57.039Z,10.20
2018-10-07T21:32:25.037Z,10.57
2018-10-07T21:34:55.201Z,11.63
2018-10-07T21:37:23.136Z,11.43
2018-10-07T21:39:51.001Z,12.37
2018-10-07T21:42:19.030Z,12.57
2018-10-07T21:44:47.212Z,11.10
2018-10-07T21:47:16.719Z,11.87
2018-10-07T21:49:44.492Z,11.53
2018-10-07T21:52:16.730Z,14.47
2018-10-07T21:54:45.041Z,11.17
2018-10-07T21:57:12.781Z,10.40
2018-10-07T21:59:40.653Z,10.77
2018-10-07T22:02:08.389Z,9.93
2018-10-07T22:04:37.396Z,8.70
2018-10-07T22:07:05.257Z,10.50
2018-10-07T22:09:32.970Z,7.53
2018-10-07T22:12:00.628Z,10.53
2018-10-07T22:14:28.353Z,8.03
2018-10-07T22:16:56.073Z,9.00
2018-10-07T22:19:23.782Z,7.10
2018-10-07T22:21:51.513Z,11.07
2018-10-07T22:24:19.262Z,8.17
2018-10-07T22:26:47.004Z,7.43
2018-10-07T22:29:14.713Z,8.37
2018-10-07T22:31:42.436Z,9.80
2018-10-07T22:34:13.424Z,7.13
2018-10-07T22:36:41.138Z,7.47
2018-10-07T22:39:08.913Z,8.83
2018-10-07T22:41:36.813Z,6.40
2018-10-07T22:44:04.625Z,7.77
2018-10-07T22:46:32.369Z,6.30
2018-10-07T22:49:00.340Z,6.47
2018-10-07T22:51:28.086Z,6.83
2018-10-07T22:53:55.835Z,8.13
2018-10-07T22:56:23.505Z,7.70
2018-10-07T22:58:51.269Z,8.10
2018-10-07T23:01:18.977Z,6.73
2018-10-07T23:03:46.636Z,9.67
2018-10-07T23:06:14.269Z,8.53
2018-10-07T23:08:42.061Z,8.83
2018-10-07T23:11:09.680Z,7.20
2018-10-07T23:13:37.392Z,7.37
2018-10-07T23:16:05.161Z,12.03
2018-10-07T23:18:32.881Z,8.83
2018-10-07T23:21:00.693Z,8.63
2018-10-07T23:23:28.393Z,6.87
2018-10-07T23:25:56.133Z,9.43
2018-10-07T23:28:23.890Z,9.87
2018-10-07T23:30:51.670Z,9.30
2018-10-07T23:33:19.301Z,9.43
2018-10-07T23:35:47.033Z,7.53
2018-10-07T23:38:14.880Z,8.87
2018-10-07T23:40:43.704Z,7.73
2018-10-07T23:43:11.396Z,11.20
2018-10-07T23:45:39.190Z,7.30
2018-10-07T23:48:06.892Z,10.10
2018-10-07T23:50:34.653Z,9.00
2018-10-07T23:53:02.350Z,9.63
2018-10-07T23:55:30.064Z,8.47
2018-10-07T23:57:57.725Z,7.57
